Time,TemperatureF,DewpointF,PressureIn,WindDirection,WindDirectionDegrees,WindSpeedMPH,WindSpeedGustMPH,Humidity,HourlyPrecipIn,Conditions,Clouds,dailyrainin,SolarRadiationWatts/m^2,SoftwareType,DateUTC
2013-09-11 00:12:00,60.0,50.0,-100.00,East,79,0.0,3.0,70,0.00,,,0.00,0.000000,,2013-09-11 07:12:00,
2013-09-11 00:23:00,60.0,50.0,-100.00,East,79,0.0,3.0,70,0.00,,,0.00,0.000000,,2013-09-11 07:23:00,
2013-09-11 00:32:00,60.0,50.0,-100.00,East,79,0.0,3.0,70,0.00,,,0.00,0.000000,,2013-09-11 07:32:00,
2013-09-11 00:52:00,61.0,50.0,-100.00,ESE,119,0.0,3.0,66,0.00,,,0.00,0.000000,,2013-09-11 07:52:00,
2013-09-11 01:02:00,61.0,50.0,-100.00,ESE,119,0.0,3.0,66,0.00,,,0.00,0.000000,,2013-09-11 08:02:00,
2013-09-11 01:11:00,61.0,50.0,-100.00,ESE,119,0.0,3.0,66,0.00,,,0.00,0.000000,,2013-09-11 08:11:00,
2013-09-11 01:22:00,61.0,50.0,-100.00,ESE,119,0.0,3.0,66,0.00,,,0.00,0.000000,,2013-09-11 08:22:00,
2013-09-11 01:31:00,61.0,50.0,-100.00,ESE,119,0.0,3.0,66,0.00,,,0.00,0.000000,,2013-09-11 08:31:00,
2013-09-11 01:52:00,61.0,52.0,-100.00,East,101,0.0,3.0,71,0.00,,,0.00,0.000000,,2013-09-11 08:52:00,
2013-09-11 02:01:00,61.0,52.0,-100.00,East,101,0.0,3.0,71,0.00,,,0.00,0.000000,,2013-09-11 09:01:00,
2013-09-11 02:12:00,61.0,52.0,-100.00,East,101,0.0,3.0,71,0.00,,,0.00,0.000000,,2013-09-11 09:12:00,
2013-09-11 02:21:00,61.0,52.0,-100.00,East,101,0.0,3.0,71,0.00,,,0.00,0.000000,,2013-09-11 09:21:00,
2013-09-11 02:33:00,61.0,52.0,-100.00,East,101,0.0,3.0,71,0.00,,,0.00,0.000000,,2013-09-11 09:33:00,
2013-09-11 03:13:00,61.0,49.0,-100.00,SE,132,0.0,4.0,65,0.00,,,0.00,0.000000,,2013-09-11 10:13:00,
2013-09-11 03:23:00,61.0,49.0,-100.00,SE,132,0.0,4.0,65,0.00,,,0.00,0.000000,,2013-09-11 10:23:00,
2013-09-11 03:33:00,61.0,49.0,-100.00,SE,132,0.0,4.0,65,0.00,,,0.00,0.000000,,2013-09-11 10:33:00,
2013-09-11 04:12:00,61.0,40.0,-100.00,ESE,123,0.0,0.0,46,0.00,,,0.00,0.000000,,2013-09-11 11:12:00,
2013-09-11 04:21:00,61.0,40.0,-100.00,ESE,123,0.0,0.0,46,0.00,,,0.00,0.000000,,2013-09-11 11:21:00,
2013-09-11 04:33:00,61.0,40.0,-100.00,ESE,123,0.0,0.0,46,0.00,,,0.00,0.000000,,2013-09-11 11:33:00,
2013-09-11 04:52:00,62.0,43.0,-100.00,ENE,78,0.0,0.0,50,0.00,,,-99.99,0.000000,,2013-09-11 11:52:00,
2013-09-11 05:01:00,62.0,43.0,-100.00,ENE,78,0.0,0.0,50,0.00,,,-99.99,0.000000,,2013-09-11 12:01:00,
2013-09-11 05:11:00,62.0,43.0,-100.00,ENE,78,0.0,0.0,50,0.00,,,-99.99,0.000000,,2013-09-11 12:11:00,
2013-09-11 05:21:00,62.0,43.0,-100.00,ENE,78,0.0,0.0,50,0.00,,,-99.99,0.000000,,2013-09-11 12:21:00,
2013-09-11 05:32:00,62.0,43.0,-100.00,ENE,78,0.0,0.0,50,0.00,,,-99.99,0.000000,,2013-09-11 12:32:00,
2013-09-11 06:12:00,61.0,43.0,-100.00,ESE,119,0.0,4.0,51,0.00,,,-99.99,0.000000,,2013-09-11 13:12:00,
2013-09-11 06:21:00,61.0,43.0,-100.00,ESE,119,0.0,4.0,51,0.00,,,-99.99,0.000000,,2013-09-11 13:21:00,
2013-09-11 06:32:00,61.0,43.0,-100.00,ESE,119,0.0,4.0,51,0.00,,,-99.99,0.000000,,2013-09-11 13:32:00,
2013-09-11 07:11:00,61.0,41.0,-100.00,ENE,77,0.0,4.0,48,0.00,,,0.00,0.000000,,2013-09-11 14:11:00,
2013-09-11 07:21:00,61.0,41.0,-100.00,ENE,77,0.0,4.0,48,0.00,,,0.00,0.000000,,2013-09-11 14:21:00,
2013-09-11 07:31:00,61.0,41.0,-100.00,ENE,77,0.0,4.0,48,0.00,,,0.00,0.000000,,2013-09-11 14:31:00,
2013-09-11 08:11:00,64.0,43.0,-100.00,ESE,106,0.0,3.0,46,0.00,,,0.00,52.000000,,2013-09-11 15:11:00,
2013-09-11 08:22:00,64.0,43.0,-100.00,ESE,106,0.0,3.0,46,0.00,,,0.00,52.000000,,2013-09-11 15:22:00,
2013-09-11 08:33:00,64.0,43.0,-100.00,ESE,106,0.0,3.0,46,0.00,,,0.00,52.000000,,2013-09-11 15:33:00,
2013-09-11 08:54:00,75.0,44.0,-100.00,West,260,0.0,3.0,33,0.00,,,0.00,332.000000,,2013-09-11 15:54:00,
2013-09-11 09:03:00,75.0,44.0,-100.00,West,260,0.0,3.0,33,0.00,,,0.00,332.000000,,2013-09-11 16:03:00,
2013-09-11 09:13:00,75.0,44.0,-100.00,West,260,0.0,3.0,33,0.00,,,0.00,332.000000,,2013-09-11 16:13:00,
2013-09-11 09:23:00,75.0,44.0,-100.00,West,260,0.0,3.0,33,0.00,,,0.00,332.000000,,2013-09-11 16:23:00,
2013-09-11 09:33:00,75.0,44.0,-100.00,West,260,0.0,3.0,33,0.00,,,0.00,332.000000,,2013-09-11 16:33:00,
2013-09-11 09:34:00,78.0,51.0,-100.00,West,260,0.0,5.0,39,0.00,,,0.00,580.000000,,2013-09-11 16:34:00,
2013-09-11 09:53:00,78.0,51.0,-100.00,West,260,0.0,5.0,39,0.00,,,0.00,580.000000,,2013-09-11 16:53:00,
2013-09-11 10:03:00,78.0,51.0,-100.00,West,260,0.0,5.0,39,0.00,,,0.00,580.000000,,2013-09-11 17:03:00,
2013-09-11 10:12:00,78.0,51.0,-100.00,West,260,0.0,5.0,39,0.00,,,0.00,580.000000,,2013-09-11 17:12:00,
2013-09-11 10:23:00,78.0,51.0,-100.00,West,260,0.0,5.0,39,0.00,,,0.00,580.000000,,2013-09-11 17:23:00,
2013-09-11 10:52:00,79.0,53.0,-100.00,West,276,5.0,11.0,40,0.00,,,0.00,790.000000,,2013-09-11 17:52:00,
2013-09-11 11:02:00,79.0,53.0,-100.00,West,276,5.0,11.0,40,0.00,,,0.00,790.000000,,2013-09-11 18:02:00,
2013-09-11 11:12:00,79.0,53.0,-100.00,West,276,5.0,11.0,40,0.00,,,0.00,790.000000,,2013-09-11 18:12:00,
2013-09-11 11:21:00,79.0,53.0,-100.00,West,276,5.0,11.0,40,0.00,,,0.00,790.000000,,2013-09-11 18:21:00,
2013-09-11 11:32:00,79.0,53.0,-100.00,West,276,5.0,11.0,40,0.00,,,0.00,790.000000,,2013-09-11 18:32:00,
2013-09-11 11:52:00,81.0,52.0,-100.00,NW,323,4.0,11.0,36,0.00,,,0.00,944.000000,,2013-09-11 18:52:00,
2013-09-11 12:01:00,81.0,52.0,-100.00,NW,323,4.0,11.0,36,0.00,,,0.00,944.000000,,2013-09-11 19:01:00,
2013-09-11 12:11:00,81.0,52.0,-100.00,NW,323,4.0,11.0,36,0.00,,,0.00,944.000000,,2013-09-11 19:11:00,
2013-09-11 12:21:00,81.0,52.0,-100.00,NW,323,4.0,11.0,36,0.00,,,0.00,944.000000,,2013-09-11 19:21:00,
2013-09-11 12:32:00,81.0,52.0,-100.00,NW,323,4.0,11.0,36,0.00,,,0.00,944.000000,,2013-09-11 19:32:00,
2013-09-11 13:12:00,84.0,48.0,-100.00,West,279,6.0,12.0,29,0.00,,,0.00,1038.000000,,2013-09-11 20:12:00,
2013-09-11 13:21:00,84.0,48.0,-100.00,West,279,6.0,12.0,29,0.00,,,0.00,1038.000000,,2013-09-11 20:21:00,
2013-09-11 13:32:00,84.0,48.0,-100.00,West,279,6.0,12.0,29,0.00,,,0.00,1038.000000,,2013-09-11 20:32:00,
2013-09-11 13:34:00,84.0,46.0,-100.00,West,261,4.0,12.0,27,0.00,,,0.00,1050.000000,,2013-09-11 20:34:00,
2013-09-11 14:11:00,84.0,46.0,-100.00,West,261,4.0,12.0,27,0.00,,,0.00,1050.000000,,2013-09-11 21:11:00,
2013-09-11 14:21:00,84.0,46.0,-100.00,West,261,4.0,12.0,27,0.00,,,0.00,1050.000000,,2013-09-11 21:21:00,
2013-09-11 14:54:00,88.0,48.0,-100.00,WNW,291,6.0,13.0,25,0.00,,,0.00,997.000000,,2013-09-11 21:54:00,
2013-09-11 15:04:00,88.0,48.0,-100.00,WNW,291,6.0,13.0,25,0.00,,,0.00,997.000000,,2013-09-11 22:04:00,
2013-09-11 15:13:00,88.0,48.0,-100.00,WNW,291,6.0,13.0,25,0.00,,,0.00,997.000000,,2013-09-11 22:13:00,
2013-09-11 15:24:00,88.0,48.0,-100.00,WNW,291,6.0,13.0,25,0.00,,,0.00,997.000000,,2013-09-11 22:24:00,
2013-09-11 15:33:00,88.0,48.0,-100.00,WNW,291,6.0,13.0,25,0.00,,,0.00,997.000000,,2013-09-11 22:33:00,
2013-09-11 15:34:00,88.0,43.0,-100.00,WNW,286,7.0,16.0,21,0.00,,,-99.99,867.000000,,2013-09-11 22:34:00,
2013-09-11 15:54:00,88.0,43.0,-100.00,WNW,286,7.0,16.0,21,0.00,,,-99.99,867.000000,,2013-09-11 22:54:00,
2013-09-11 16:03:00,88.0,43.0,-100.00,WNW,286,7.0,16.0,21,0.00,,,-99.99,867.000000,,2013-09-11 23:03:00,
2013-09-11 16:12:00,88.0,43.0,-100.00,WNW,286,7.0,16.0,21,0.00,,,-99.99,867.000000,,2013-09-11 23:12:00,
2013-09-11 16:22:00,88.0,43.0,-100.00,WNW,286,7.0,16.0,21,0.00,,,-99.99,867.000000,,2013-09-11 23:22:00,
2013-09-11 16:53:00,87.0,45.0,-100.00,WNW,285,7.0,14.0,23,0.00,,,0.00,671.000000,,2013-09-11 23:53:00,
2013-09-11 17:01:00,87.0,45.0,-100.00,WNW,285,7.0,14.0,23,0.00,,,0.00,671.000000,,2013-09-12 00:01:00,
2013-09-11 17:11:00,87.0,45.0,-100.00,WNW,285,7.0,14.0,23,0.00,,,0.00,671.000000,,2013-09-12 00:11:00,
2013-09-11 17:21:00,87.0,45.0,-100.00,WNW,285,7.0,14.0,23,0.00,,,0.00,671.000000,,2013-09-12 00:21:00,
2013-09-11 17:32:00,87.0,45.0,-100.00,WNW,285,7.0,14.0,23,0.00,,,0.00,671.000000,,2013-09-12 00:32:00,
2013-09-11 17:52:00,85.0,48.0,-100.00,WNW,286,7.0,15.0,28,0.00,,,0.00,426.000000,,2013-09-12 00:52:00,
2013-09-11 18:01:00,85.0,48.0,-100.00,WNW,286,7.0,15.0,28,0.00,,,0.00,426.000000,,2013-09-12 01:01:00,
2013-09-11 18:11:00,85.0,48.0,-100.00,WNW,286,7.0,15.0,28,0.00,,,0.00,426.000000,,2013-09-12 01:11:00,
2013-09-11 18:22:00,85.0,48.0,-100.00,WNW,286,7.0,15.0,28,0.00,,,0.00,426.000000,,2013-09-12 01:22:00,
2013-09-11 18:32:00,85.0,48.0,-100.00,WNW,286,7.0,15.0,28,0.00,,,0.00,426.000000,,2013-09-12 01:32:00,
2013-09-11 18:52:00,79.0,50.0,-100.00,West,278,6.0,15.0,37,0.00,,,0.00,94.000000,,2013-09-12 01:52:00,
2013-09-11 19:03:00,79.0,50.0,-100.00,West,278,6.0,15.0,37,0.00,,,0.00,94.000000,,2013-09-12 02:03:00,
2013-09-11 19:12:00,79.0,50.0,-100.00,West,278,6.0,15.0,37,0.00,,,0.00,94.000000,,2013-09-12 02:12:00,
2013-09-11 19:21:00,79.0,50.0,-100.00,West,278,6.0,15.0,37,0.00,,,0.00,94.000000,,2013-09-12 02:21:00,
2013-09-11 19:33:00,79.0,50.0,-100.00,West,278,6.0,15.0,37,0.00,,,0.00,94.000000,,2013-09-12 02:33:00,
2013-09-11 19:34:00,71.0,52.0,-100.00,WNW,282,5.0,11.0,51,0.00,,,0.00,13.000000,,2013-09-12 02:34:00,
2013-09-11 20:11:00,71.0,52.0,-100.00,WNW,282,5.0,11.0,51,0.00,,,0.00,13.000000,,2013-09-12 03:11:00,
2013-09-11 20:22:00,71.0,52.0,-100.00,WNW,282,5.0,11.0,51,0.00,,,0.00,13.000000,,2013-09-12 03:22:00,
2013-09-11 20:34:00,68.0,54.0,-100.00,NNW,340,0.0,8.0,62,0.00,,,0.00,0.000000,,2013-09-12 03:34:00,
2013-09-11 21:14:00,68.0,54.0,-100.00,NNW,340,0.0,8.0,62,0.00,,,0.00,0.000000,,2013-09-12 04:14:00,
2013-09-11 21:23:00,68.0,54.0,-100.00,NNW,340,0.0,8.0,62,0.00,,,0.00,0.000000,,2013-09-12 04:23:00,
2013-09-11 21:34:00,65.0,55.0,-100.00,NNE,30,0.0,0.0,69,0.00,,,0.00,0.000000,,2013-09-12 04:34:00,
2013-09-11 22:13:00,65.0,55.0,-100.00,NNE,30,0.0,0.0,69,0.00,,,0.00,0.000000,,2013-09-12 05:13:00,
2013-09-11 22:22:00,65.0,55.0,-100.00,NNE,30,0.0,0.0,69,0.00,,,0.00,0.000000,,2013-09-12 05:22:00,
2013-09-11 23:12:00,62.0,51.0,-100.00,East,100,0.0,4.0,68,0.00,,,0.00,0.000000,,2013-09-12 06:12:00,
2013-09-11 23:21:00,62.0,51.0,-100.00,East,100,0.0,4.0,68,0.00,,,0.00,0.000000,,2013-09-12 06:21:00,
2013-09-11 23:33:00,62.0,51.0,-100.00,East,100,0.0,4.0,68,0.00,,,0.00,0.000000,,2013-09-12 06:33:00,